createdAt,value
2023-02-12T00:03:51.739Z,17.67
2023-02-12T00:08:56.010Z,15.93
2023-02-12T00:14:00.358Z,15.73
2023-02-12T00:19:03.120Z,16.43
2023-02-12T00:24:06.132Z,15.00
2023-02-12T00:29:11.041Z,15.17
2023-02-12T00:34:13.801Z,15.80
2023-02-12T00:39:17.002Z,16.17
2023-02-12T00:44:21.212Z,16.50
2023-02-12T00:49:24.068Z,15.17
2023-02-12T00:54:26.937Z,15.43
2023-02-12T00:59:31.698Z,15.10
2023-02-12T01:04:34.487Z,15.90
2023-02-12T01:09:37.314Z,15.27
2023-02-12T01:14:41.457Z,15.67
2023-02-12T01:19:44.219Z,14.57
2023-02-12T01:24:46.968Z,15.60
2023-02-12T01:29:51.289Z,15.73
2023-02-12T01:34:54.956Z,13.73
2023-02-12T01:39:58.058Z,14.97
2023-02-12T01:45:54.479Z,14.33
2023-02-12T01:50:59.101Z,13.93
2023-02-12T01:56:03.334Z,14.63
2023-02-12T02:01:09.364Z,14.37
2023-02-12T02:06:16.746Z,14.37
2023-02-12T02:11:36.899Z,14.50
2023-02-12T02:16:44.512Z,13.50
2023-02-12T02:22:06.536Z,13.27
2023-02-12T02:27:22.605Z,13.93
2023-02-12T02:32:28.546Z,13.60
2023-02-12T02:37:34.230Z,13.77
2023-02-12T02:42:40.929Z,12.70
2023-02-12T02:47:48.035Z,12.40
2023-02-12T02:52:53.706Z,13.70
2023-02-12T02:57:58.990Z,12.70
2023-02-12T03:03:08.399Z,12.80
2023-02-12T03:08:13.951Z,13.03
2023-02-12T03:13:21.627Z,13.97
2023-02-12T03:18:29.076Z,14.43
2023-02-12T03:23:34.321Z,13.93
2023-02-12T03:28:38.832Z,14.17
2023-02-12T03:33:52.707Z,13.17
2023-02-12T03:38:57.477Z,11.87
2023-02-12T03:44:05.922Z,14.00
2023-02-12T03:49:14.571Z,13.00
2023-02-12T03:54:19.204Z,13.07
2023-02-12T03:59:22.708Z,12.83
2023-02-12T04:04:27.414Z,13.90
2023-02-12T04:09:30.508Z,13.03
2023-02-12T04:14:41.295Z,13.20
2023-02-12T04:19:55.957Z,13.17
2023-02-12T04:25:01.748Z,13.80
2023-02-12T04:30:07.398Z,13.50
2023-02-12T04:35:17.505Z,13.90
2023-02-12T04:40:21.955Z,13.07
2023-02-12T04:45:26.983Z,12.82
2023-02-12T04:50:40.011Z,13.27
2023-02-12T04:55:43.475Z,12.75
2023-02-12T05:00:46.264Z,12.20
2023-02-12T05:05:50.361Z,13.25
2023-02-12T05:10:53.151Z,12.50
2023-02-12T05:15:56.429Z,10.90
2023-02-12T05:21:01.931Z,11.53
2023-02-12T05:26:07.014Z,13.00
2023-02-12T05:31:11.757Z,11.77
2023-02-12T05:36:17.313Z,11.00
2023-02-12T05:41:22.456Z,13.57
2023-02-12T05:46:25.254Z,13.93
2023-02-12T05:51:29.455Z,11.87
2023-02-12T05:56:33.573Z,14.00
2023-02-12T06:01:38.705Z,11.80
2023-02-12T06:06:43.248Z,12.57
2023-02-12T06:11:46.423Z,11.47
2023-02-12T06:16:50.713Z,12.53
2023-02-12T06:21:54.839Z,11.52
2023-02-12T06:26:57.549Z,10.77
2023-02-12T06:32:00.472Z,11.38
2023-02-12T06:37:04.607Z,10.63
2023-02-12T06:42:07.421Z,10.45
2023-02-12T06:47:10.144Z,10.18
2023-02-12T06:52:14.338Z,10.88
2023-02-12T06:57:17.145Z,11.97
2023-02-12T07:02:19.901Z,11.45
2023-02-12T07:07:24.118Z,11.57
2023-02-12T07:12:26.866Z,11.43
2023-02-12T07:17:31.092Z,11.90
2023-02-12T07:22:38.105Z,10.88
2023-02-12T07:27:40.921Z,10.38
2023-02-12T07:32:43.698Z,10.50
2023-02-12T07:37:47.774Z,11.97
2023-02-12T07:42:55.157Z,11.70
2023-02-12T07:47:57.863Z,11.90
2023-02-12T07:53:02.113Z,11.60
2023-02-12T07:58:05.198Z,11.27
2023-02-12T08:03:08.147Z,11.35
2023-02-12T08:08:12.295Z,11.27
2023-02-12T08:13:15.063Z,13.13
2023-02-12T08:18:18.116Z,14.55
2023-02-12T08:23:22.230Z,12.57
2023-02-12T08:28:24.992Z,12.50
2023-02-12T08:33:27.947Z,11.88
2023-02-12T08:38:32.548Z,12.18
2023-02-12T08:43:35.618Z,11.47
2023-02-12T08:48:38.668Z,10.23
2023-02-12T08:53:44.230Z,10.18
2023-02-12T08:58:47.449Z,9.55
2023-02-12T09:03:50.872Z,9.90
2023-02-12T09:08:55.907Z,7.38
2023-02-12T09:14:00.013Z,7.10
2023-02-12T09:19:02.751Z,7.28
2023-02-12T09:24:07.244Z,6.82
2023-02-12T09:29:10.054Z,6.85
2023-02-12T09:34:13.114Z,6.78
2023-02-12T09:39:17.335Z,6.18
2023-02-12T09:44:23.266Z,7.22
2023-02-12T09:49:49.489Z,7.15
2023-02-12T09:54:54.834Z,7.10
2023-02-12T09:59:59.702Z,7.32
2023-02-12T10:05:02.832Z,7.65
2023-02-12T10:10:17.686Z,7.72
2023-02-12T10:15:31.628Z,8.48
2023-02-12T10:20:59.710Z,8.05
2023-02-12T10:26:07.288Z,7.90
2023-02-12T10:31:16.598Z,8.50
2023-02-12T10:36:29.023Z,8.38
2023-02-12T10:41:34.353Z,8.95
2023-02-12T10:46:37.244Z,7.75
2023-02-12T10:51:54.824Z,8.02
2023-02-12T10:56:59.086Z,7.20
2023-02-12T11:02:01.903Z,6.60
2023-02-12T11:07:06.742Z,6.97
2023-02-12T11:12:20.714Z,9.18
2023-02-12T11:17:26.937Z,6.88
2023-02-12T11:22:30.490Z,6.38
2023-02-12T11:27:34.611Z,6.68
2023-02-12T11:32:38.040Z,7.75
2023-02-12T11:37:42.831Z,8.18
2023-02-12T11:42:49.286Z,7.38
2023-02-12T11:47:52.560Z,7.57
2023-02-12T11:52:59.083Z,6.63
2023-02-12T11:58:15.352Z,6.80
2023-02-12T12:03:22.903Z,6.65
2023-02-12T12:08:29.234Z,6.88
2023-02-12T12:13:37.188Z,5.95
2023-02-12T12:19:04.597Z,6.32
2023-02-12T12:24:11.115Z,6.80
2023-02-12T12:29:20.830Z,5.60
2023-02-12T12:34:25.319Z,6.30
2023-02-12T12:39:30.194Z,6.20
2023-02-12T12:44:47.173Z,5.72
2023-02-12T12:49:57.790Z,6.03
2023-02-12T12:55:08.975Z,8.55
2023-02-12T13:00:25.037Z,7.82
2023-02-12T13:06:24.686Z,8.38
2023-02-12T13:11:38.899Z,8.40
2023-02-12T13:16:47.517Z,8.95
2023-02-12T13:21:56.957Z,8.48
2023-02-12T13:27:01.628Z,7.82
2023-02-12T13:32:07.481Z,9.65
2023-02-12T13:37:14.663Z,9.48
2023-02-12T13:42:27.164Z,9.15
2023-02-12T13:47:38.312Z,10.13
2023-02-12T13:52:45.378Z,10.50
2023-02-12T13:57:48.077Z,9.30
2023-02-12T14:02:52.755Z,9.70
2023-02-12T14:07:57.139Z,10.15
2023-02-12T14:13:11.689Z,10.57
2023-02-12T14:18:27.998Z,9.93
2023-02-12T14:23:32.522Z,9.77
2023-02-12T14:28:51.469Z,10.20
2023-02-12T14:34:38.639Z,9.80
2023-02-12T14:39:41.456Z,10.65
2023-02-12T14:44:49.796Z,10.63
2023-02-12T14:49:55.804Z,10.88
2023-02-12T14:55:00.501Z,11.02
2023-02-12T15:00:13.895Z,10.85
2023-02-12T15:05:22.045Z,10.02
2023-02-12T15:10:29.019Z,10.27
2023-02-12T15:15:34.802Z,11.10
2023-02-12T15:20:46.315Z,11.60
2023-02-12T15:25:51.648Z,11.40
2023-02-12T15:30:55.513Z,12.02
2023-02-12T15:36:00.043Z,13.02
2023-02-12T15:41:04.109Z,13.05
2023-02-12T15:46:08.903Z,14.15
2023-02-12T15:51:19.403Z,14.60
2023-02-12T15:56:24.345Z,14.20
2023-02-12T16:01:29.177Z,16.02
2023-02-12T16:06:35.384Z,14.65
2023-02-12T16:11:38.568Z,17.40
2023-02-12T16:16:45.475Z,17.50
2023-02-12T16:21:51.620Z,19.50
2023-02-12T16:26:54.491Z,18.98
2023-02-12T16:31:59.056Z,17.38
2023-02-12T16:37:03.966Z,17.42
2023-02-12T16:42:16.185Z,19.05
2023-02-12T16:47:21.862Z,21.40
2023-02-12T16:52:36.466Z,20.73
2023-02-12T16:57:39.213Z,21.27
2023-02-12T17:02:42.045Z,18.73
2023-02-12T17:07:46.407Z,18.45
2023-02-12T17:12:51.327Z,17.40
2023-02-12T17:17:54.103Z,15.55
2023-02-12T17:22:59.406Z,15.75
2023-02-12T17:28:02.374Z,14.07
2023-02-12T17:33:05.509Z,14.15
2023-02-12T17:38:10.015Z,13.90
2023-02-12T17:43:12.900Z,13.90
2023-02-12T17:48:17.114Z,14.52
2023-02-12T17:53:21.232Z,13.77
2023-02-12T17:58:24.055Z,13.77
2023-02-12T18:03:26.857Z,17.55
2023-02-12T18:08:31.838Z,15.57
2023-02-12T18:13:34.878Z,15.75
2023-02-12T18:18:40.066Z,18.90
2023-02-12T18:23:45.558Z,18.27
2023-02-12T18:28:48.298Z,17.25
2023-02-12T18:33:50.980Z,16.45
2023-02-12T18:38:55.047Z,16.40
2023-02-12T18:43:59.222Z,23.73
2023-02-12T18:49:02.765Z,41.08
2023-02-12T18:54:09.450Z,32.88
2023-02-12T18:59:14.131Z,21.95
2023-02-12T19:04:18.049Z,24.88
2023-02-12T19:09:24.414Z,19.63
2023-02-12T19:14:28.088Z,19.00
2023-02-12T19:19:31.030Z,19.40
2023-02-12T19:24:46.196Z,19.25
2023-02-12T19:29:49.807Z,19.08
2023-02-12T19:34:52.784Z,18.27
2023-02-12T19:39:56.855Z,19.55
2023-02-12T19:44:59.859Z,17.35
2023-02-12T19:50:02.761Z,16.73
2023-02-12T19:55:07.634Z,13.95
2023-02-12T20:00:11.703Z,14.35
2023-02-12T20:05:14.443Z,13.45
2023-02-12T20:10:19.179Z,15.15
2023-02-12T20:15:25.366Z,16.55
2023-02-12T20:20:28.097Z,17.08
2023-02-12T20:25:32.345Z,17.65
2023-02-12T20:30:35.177Z,16.58
2023-02-12T20:35:38.703Z,14.45
2023-02-12T20:40:42.828Z,16.60
2023-02-12T20:45:45.561Z,15.85
2023-02-12T20:50:48.296Z,15.05
2023-02-12T20:55:52.459Z,14.07
2023-02-12T21:00:55.435Z,14.98
2023-02-12T21:05:58.732Z,12.85
2023-02-12T21:11:04.740Z,11.45
2023-02-12T21:16:09.735Z,10.48
2023-02-12T21:21:13.960Z,9.38
2023-02-12T21:26:19.873Z,9.05
2023-02-12T21:31:24.830Z,8.55
2023-02-12T21:36:29.201Z,7.97
2023-02-12T21:41:35.583Z,8.30
2023-02-12T21:46:38.701Z,7.53
2023-02-12T21:51:43.424Z,7.75
2023-02-12T21:56:49.010Z,8.35
2023-02-12T22:01:53.670Z,8.63
2023-02-12T22:06:57.996Z,8.52
2023-02-12T22:12:02.222Z,8.02
2023-02-12T22:17:04.982Z,8.20
2023-02-12T22:22:07.822Z,8.30
2023-02-12T22:27:11.958Z,7.75
2023-02-12T22:32:14.862Z,7.72
2023-02-12T22:37:17.955Z,7.75
2023-02-12T22:42:22.138Z,7.20
2023-02-12T22:47:24.925Z,7.75
2023-02-12T22:52:27.904Z,6.95
2023-02-12T22:57:32.105Z,7.18
2023-02-12T23:02:34.807Z,7.80
2023-02-12T23:07:37.570Z,7.57
2023-02-12T23:12:41.781Z,7.15
2023-02-12T23:17:44.685Z,6.82
2023-02-12T23:22:47.472Z,7.10
2023-02-12T23:27:51.676Z,6.78
2023-02-12T23:32:54.422Z,7.07
2023-02-12T23:37:57.212Z,6.60
2023-02-12T23:43:01.758Z,7.10
2023-02-12T23:48:04.768Z,6.32
2023-02-12T23:53:09.924Z,6.68
2023-02-12T23:58:14.097Z,6.97
